Time;durP1;ratioP1;P1;durP2;ratioP2;P2;SDS_P1;SDS_P2;PMS_P1;PMS_P2;Temp;Humidity;BMP_temperature;BMP_pressure;BME280_temperature;BME280_humidity;BME280_pressure;Samples;Min_cycle;Max_cycle;Signal;HPM_P1;HPM_P2
2023/12/08 00:01:23;;;;;;;30.80;18.53;;;;;;;;;;6277806;22;20144;-54
2023/12/08 00:03:50;;;;;;;28.73;17.93;;;;;;;;;;6277110;22;20124;-53
2023/12/08 00:06:16;;;;;;;31.17;18.43;;;;;;;;;;6277154;22;20164;-52
2023/12/08 00:08:44;;;;;;;25.77;16.77;;;;;;;;;;6276788;22;20578;-55
2023/12/08 00:11:11;;;;;;;29.47;17.77;;;;;;;;;;6277926;22;20140;-48
2023/12/08 00:13:37;;;;;;;28.00;18.23;;;;;;;;;;6276687;22;20198;-51
2023/12/08 00:16:03;;;;;;;27.40;17.10;;;;;;;;;;6276867;22;20431;-52
2023/12/08 00:18:30;;;;;;;25.27;17.00;;;;;;;;;;6276483;22;20183;-53
2023/12/08 00:20:56;;;;;;;26.63;17.37;;;;;;;;;;6276808;22;20652;-53
2023/12/08 00:23:28;;;;;;;23.83;16.70;;;;;;;;;;6277148;22;20251;-50
2023/12/08 00:25:54;;;;;;;24.20;15.83;;;;;;;;;;6277369;22;20222;-52
2023/12/08 00:28:22;;;;;;;26.83;17.07;;;;;;;;;;6276400;22;20137;-54
2023/12/08 00:30:48;;;;;;;23.73;15.93;;;;;;;;;;6276814;22;20129;-52
2023/12/08 00:33:14;;;;;;;27.50;17.43;;;;;;;;;;6276330;22;20249;-56
2023/12/08 00:35:40;;;;;;;25.53;16.40;;;;;;;;;;6276415;22;20156;-53
2023/12/08 00:38:07;;;;;;;24.73;16.60;;;;;;;;;;6276390;22;20230;-55
2023/12/08 00:40:37;;;;;;;27.27;16.37;;;;;;;;;;6276791;22;20539;-54
2023/12/08 00:43:03;;;;;;;24.20;15.87;;;;;;;;;;6276526;22;20179;-55
2023/12/08 00:45:40;;;;;;;22.50;16.13;;;;;;;;;;6277773;22;20152;-53
2023/12/08 00:48:06;;;;;;;27.17;17.03;;;;;;;;;;6276671;22;20155;-49
2023/12/08 00:50:32;;;;;;;25.60;16.33;;;;;;;;;;6277545;22;20167;-51
2023/12/08 00:52:58;;;;;;;24.40;17.13;;;;;;;;;;6277169;22;20143;-52
2023/12/08 00:55:25;;;;;;;24.30;16.00;;;;;;;;;;6277236;22;20133;-50
2023/12/08 00:57:51;;;;;;;24.93;16.63;;;;;;;;;;6277547;22;20227;-56
2023/12/08 01:00:17;;;;;;;23.17;15.70;;;;;;;;;;6278052;22;20136;-49
2023/12/08 01:02:44;;;;;;;23.03;15.30;;;;;;;;;;6276751;22;20171;-56
2023/12/08 01:05:11;;;;;;;23.47;16.00;;;;;;;;;;6277107;22;20592;-58
2023/12/08 01:07:37;;;;;;;25.10;16.40;;;;;;;;;;6280259;22;20186;-57
2023/12/08 01:10:03;;;;;;;23.90;15.47;;;;;;;;;;6276839;22;20160;-52
2023/12/08 01:12:29;;;;;;;25.17;16.27;;;;;;;;;;6276641;22;20183;-49
2023/12/08 01:14:55;;;;;;;26.77;15.60;;;;;;;;;;6275449;22;20136;-54
2023/12/08 01:17:21;;;;;;;25.80;15.53;;;;;;;;;;6270512;22;20223;-55
2023/12/08 01:19:47;;;;;;;22.70;15.47;;;;;;;;;;6270217;22;20141;-51
2023/12/08 01:22:14;;;;;;;21.93;14.93;;;;;;;;;;6270916;22;20141;-49
2023/12/08 01:24:40;;;;;;;23.50;15.83;;;;;;;;;;6270475;22;20159;-51
2023/12/08 01:27:06;;;;;;;24.50;15.53;;;;;;;;;;6270577;22;20188;-49
2023/12/08 01:29:32;;;;;;;24.60;15.30;;;;;;;;;;6269840;22;20144;-51
2023/12/08 01:31:58;;;;;;;26.37;15.87;;;;;;;;;;6271656;22;20170;-51
2023/12/08 01:34:24;;;;;;;22.17;15.63;;;;;;;;;;6271048;22;20164;-53
2023/12/08 01:36:52;;;;;;;25.77;17.23;;;;;;;;;;6274755;22;20223;-51
2023/12/08 01:39:18;;;;;;;23.07;15.23;;;;;;;;;;6275871;22;20192;-55
2023/12/08 01:41:44;;;;;;;23.13;15.13;;;;;;;;;;6277515;22;20209;-51
2023/12/08 01:44:10;;;;;;;24.67;16.13;;;;;;;;;;6304037;22;20132;-54
2023/12/08 01:46:37;;;;;;;21.17;14.30;;;;;;;;;;6277473;22;20201;-54
2023/12/08 01:49:03;;;;;;;22.27;14.77;;;;;;;;;;6303931;22;20414;-50
2023/12/08 01:51:29;;;;;;;22.50;14.87;;;;;;;;;;6277431;22;20214;-49
2023/12/08 01:53:56;;;;;;;23.53;15.10;;;;;;;;;;6304360;22;21872;-55
2023/12/08 01:56:23;;;;;;;26.30;15.80;;;;;;;;;;6278087;22;20152;-51
2023/12/08 01:58:50;;;;;;;23.23;15.43;;;;;;;;;;6276575;22;20224;-53
2023/12/08 02:01:16;;;;;;;24.00;14.63;;;;;;;;;;6273879;22;20151;-53
2023/12/08 02:03:44;;;;;;;19.53;14.03;;;;;;;;;;6274008;22;20234;-51
2023/12/08 02:06:10;;;;;;;23.00;13.83;;;;;;;;;;6302380;22;20417;-51
2023/12/08 02:08:36;;;;;;;23.77;14.90;;;;;;;;;;6274703;22;20215;-50
2023/12/08 02:11:02;;;;;;;24.53;15.33;;;;;;;;;;6277218;22;20652;-53
2023/12/08 02:13:28;;;;;;;23.07;15.40;;;;;;;;;;6276409;22;20517;-51
2023/12/08 02:15:58;;;;;;;23.97;15.77;;;;;;;;;;6279058;22;20167;-55
2023/12/08 02:18:25;;;;;;;24.30;15.87;;;;;;;;;;6282128;22;20143;-51
2023/12/08 02:20:51;;;;;;;23.37;15.20;;;;;;;;;;6281092;22;20176;-52
2023/12/08 02:23:17;;;;;;;22.27;13.87;;;;;;;;;;6281624;22;20154;-54
2023/12/08 02:25:44;;;;;;;22.03;14.70;;;;;;;;;;6280887;22;20230;-52
2023/12/08 02:28:10;;;;;;;23.43;14.03;;;;;;;;;;6281717;22;20218;-52
2023/12/08 02:30:36;;;;;;;21.90;14.47;;;;;;;;;;6307810;22;20210;-51
2023/12/08 02:33:08;;;;;;;21.17;14.37;;;;;;;;;;6308214;22;20159;-51
2023/12/08 02:35:36;;;;;;;24.97;15.80;;;;;;;;;;6307716;22;20124;-53
2023/12/08 02:38:03;;;;;;;19.33;13.73;;;;;;;;;;6274560;22;20198;-52
2023/12/08 02:40:29;;;;;;;21.50;14.80;;;;;;;;;;6276731;22;20144;-49
2023/12/08 02:42:55;;;;;;;23.03;14.53;;;;;;;;;;6275916;22;20129;-50
2023/12/08 02:45:21;;;;;;;22.67;14.83;;;;;;;;;;6275572;22;20152;-51
2023/12/08 02:47:47;;;;;;;22.20;15.03;;;;;;;;;;6275489;22;20156;-49
2023/12/08 02:50:14;;;;;;;24.83;14.73;;;;;;;;;;6275160;22;20168;-49
2023/12/08 02:52:40;;;;;;;19.27;13.83;;;;;;;;;;6274373;22;20152;-50
2023/12/08 02:55:06;;;;;;;21.33;14.73;;;;;;;;;;6277240;22;20148;-52
2023/12/08 02:57:32;;;;;;;18.80;13.40;;;;;;;;;;6278030;22;20145;-52
2023/12/08 02:59:58;;;;;;;21.73;15.03;;;;;;;;;;6277917;22;20235;-49
2023/12/08 03:02:49;;;;;;;20.57;14.37;;;;;;;;;;6277505;22;20140;-51
2023/12/08 03:05:16;;;;;;;23.70;14.30;;;;;;;;;;6207989;22;20246;-52
2023/12/08 03:07:41;;;;;;;19.40;13.73;;;;;;;;;;6277612;22;20167;-52
2023/12/08 03:10:09;;;;;;;20.73;14.47;;;;;;;;;;6277435;22;20148;-55
2023/12/08 03:12:35;;;;;;;22.97;15.17;;;;;;;;;;6279549;22;20206;-51
2023/12/08 03:15:01;;;;;;;22.70;14.70;;;;;;;;;;6278105;22;20469;-52
2023/12/08 03:17:28;;;;;;;19.57;14.10;;;;;;;;;;6278534;22;20666;-54
2023/12/08 03:19:55;;;;;;;20.83;14.20;;;;;;;;;;6278318;22;20209;-51
2023/12/08 03:22:21;;;;;;;22.20;14.00;;;;;;;;;;6276728;22;20179;-52
2023/12/08 03:24:47;;;;;;;18.70;13.60;;;;;;;;;;6277397;22;20152;-53
2023/12/08 03:27:13;;;;;;;19.87;13.17;;;;;;;;;;6278482;22;20186;-54
2023/12/08 03:29:42;;;;;;;19.67;13.23;;;;;;;;;;6277773;22;20172;-54
2023/12/08 03:32:08;;;;;;;20.60;14.30;;;;;;;;;;6278649;22;20140;-49
2023/12/08 03:34:35;;;;;;;21.23;14.17;;;;;;;;;;6279111;22;20171;-54
2023/12/08 03:37:01;;;;;;;21.20;14.00;;;;;;;;;;6284424;22;20202;-51
2023/12/08 03:39:27;;;;;;;19.17;12.70;;;;;;;;;;6309915;22;20226;-51
2023/12/08 03:41:53;;;;;;;19.40;12.57;;;;;;;;;;6283472;22;20162;-51
2023/12/08 03:44:19;;;;;;;21.07;12.77;;;;;;;;;;6283936;22;20147;-50
2023/12/08 03:46:45;;;;;;;20.63;13.63;;;;;;;;;;6283460;22;20709;-54
2023/12/08 03:49:11;;;;;;;19.67;13.13;;;;;;;;;;6283867;22;20430;-55
2023/12/08 03:51:37;;;;;;;19.23;13.20;;;;;;;;;;6283411;22;20139;-55
2023/12/08 03:54:03;;;;;;;19.40;13.03;;;;;;;;;;6310001;22;20150;-55
2023/12/08 03:56:29;;;;;;;18.97;12.47;;;;;;;;;;6283490;22;20222;-62
2023/12/08 03:58:55;;;;;;;17.70;12.30;;;;;;;;;;6283464;22;20136;-54
2023/12/08 04:01:21;;;;;;;20.70;12.83;;;;;;;;;;6310186;22;20128;-56
2023/12/08 04:03:48;;;;;;;17.37;12.00;;;;;;;;;;6309581;22;20128;-56
2023/12/08 04:06:17;;;;;;;19.03;11.80;;;;;;;;;;6283228;22;20567;-54
2023/12/08 04:08:43;;;;;;;17.87;12.53;;;;;;;;;;6282961;22;20162;-56
2023/12/08 04:11:10;;;;;;;17.17;11.73;;;;;;;;;;6283362;22;20143;-56
2023/12/08 04:13:36;;;;;;;17.17;11.60;;;;;;;;;;6282676;22;20147;-55
2023/12/08 04:16:02;;;;;;;18.30;12.37;;;;;;;;;;6281643;22;20151;-54
2023/12/08 04:18:28;;;;;;;16.13;10.93;;;;;;;;;;6281623;22;20158;-52
2023/12/08 04:20:53;;;;;;;16.63;11.70;;;;;;;;;;6309644;22;20513;-51
2023/12/08 04:23:19;;;;;;;15.30;10.57;;;;;;;;;;6281973;22;20399;-52
2023/12/08 04:25:45;;;;;;;16.20;10.87;;;;;;;;;;6309833;22;20143;-53
2023/12/08 04:28:11;;;;;;;17.77;11.33;;;;;;;;;;6308501;22;20154;-55
2023/12/08 04:31:09;;;;;;;16.10;10.87;;;;;;;;;;6309926;22;20163;-49
2023/12/08 04:33:35;;;;;;;15.70;10.50;;;;;;;;;;6281964;22;20239;-51
2023/12/08 04:36:01;;;;;;;13.07;10.03;;;;;;;;;;6281991;22;20171;-50
2023/12/08 04:38:27;;;;;;;15.57;10.87;;;;;;;;;;6276985;22;20191;-51
2023/12/08 04:40:53;;;;;;;16.53;10.57;;;;;;;;;;6276971;22;20166;-50
2023/12/08 04:43:19;;;;;;;16.30;10.90;;;;;;;;;;6277161;22;20534;-50
2023/12/08 04:45:45;;;;;;;15.00;10.27;;;;;;;;;;6277685;22;20155;-53
2023/12/08 04:48:11;;;;;;;15.00;10.57;;;;;;;;;;6276566;22;20159;-49
2023/12/08 04:50:37;;;;;;;16.07;10.40;;;;;;;;;;6276860;22;20132;-51
2023/12/08 04:53:03;;;;;;;14.93;10.17;;;;;;;;;;6276501;22;20144;-50
2023/12/08 04:55:29;;;;;;;15.80;10.23;;;;;;;;;;6278655;22;20215;-50
2023/12/08 04:57:55;;;;;;;13.50;10.00;;;;;;;;;;6277547;22;20160;-49
2023/12/08 05:00:21;;;;;;;13.90;10.63;;;;;;;;;;6277829;22;20128;-51
2023/12/08 05:02:48;;;;;;;15.77;9.67;;;;;;;;;;6276384;22;20140;-56
2023/12/08 05:05:14;;;;;;;12.57;9.63;;;;;;;;;;6275405;22;20144;-53
2023/12/08 05:07:40;;;;;;;17.27;10.70;;;;;;;;;;6275729;22;20214;-51
2023/12/08 05:10:06;;;;;;;16.03;11.00;;;;;;;;;;6273997;22;20159;-54
2023/12/08 05:12:32;;;;;;;13.93;10.40;;;;;;;;;;6270701;22;20354;-51
2023/12/08 05:14:58;;;;;;;16.07;9.80;;;;;;;;;;6269935;22;20204;-51
2023/12/08 05:17:24;;;;;;;12.90;9.13;;;;;;;;;;6274681;22;20171;-51
2023/12/08 05:19:50;;;;;;;14.07;10.13;;;;;;;;;;6275735;22;20141;-54
2023/12/08 05:22:16;;;;;;;15.30;10.43;;;;;;;;;;6275631;22;20148;-52
2023/12/08 05:24:42;;;;;;;15.57;10.80;;;;;;;;;;6274932;22;20167;-52
2023/12/08 05:27:08;;;;;;;17.23;10.97;;;;;;;;;;6275002;22;20172;-49
2023/12/08 05:29:34;;;;;;;16.80;10.93;;;;;;;;;;6274351;22;20681;-52
2023/12/08 05:32:00;;;;;;;14.73;10.43;;;;;;;;;;6275583;22;20132;-49
2023/12/08 05:34:27;;;;;;;13.83;10.37;;;;;;;;;;6275720;22;20185;-53
2023/12/08 05:36:53;;;;;;;15.40;10.57;;;;;;;;;;6279496;22;20450;-51
2023/12/08 05:39:19;;;;;;;14.77;10.77;;;;;;;;;;6306976;22;20225;-51
2023/12/08 05:41:46;;;;;;;16.27;11.03;;;;;;;;;;6280862;22;20167;-52
2023/12/08 05:44:12;;;;;;;14.03;10.13;;;;;;;;;;6307869;22;20144;-49
2023/12/08 05:46:38;;;;;;;13.17;9.53;;;;;;;;;;6281810;22;20245;-51
2023/12/08 05:49:04;;;;;;;16.93;10.87;;;;;;;;;;6281259;22;20221;-49
2023/12/08 05:51:30;;;;;;;14.67;10.37;;;;;;;;;;6307741;22;20568;-51
2023/12/08 05:53:56;;;;;;;17.87;12.23;;;;;;;;;;6280121;22;20154;-53
2023/12/08 05:56:22;;;;;;;16.00;11.57;;;;;;;;;;6307635;22;20139;-52
2023/12/08 05:58:48;;;;;;;17.73;11.13;;;;;;;;;;6280509;22;20147;-51
2023/12/08 06:01:14;;;;;;;15.20;10.63;;;;;;;;;;6280004;22;20139;-55
2023/12/08 06:03:40;;;;;;;17.73;11.53;;;;;;;;;;6280723;22;20739;-55
2023/12/08 06:06:07;;;;;;;18.83;11.57;;;;;;;;;;6280642;22;20209;-50
2023/12/08 06:08:33;;;;;;;15.83;10.80;;;;;;;;;;6280225;22;20223;-53
2023/12/08 06:10:59;;;;;;;18.67;13.20;;;;;;;;;;6307425;22;20147;-51
2023/12/08 06:13:25;;;;;;;16.97;12.10;;;;;;;;;;6275939;22;20384;-52
2023/12/08 06:15:51;;;;;;;17.90;12.77;;;;;;;;;;6273663;22;20209;-54
2023/12/08 06:18:17;;;;;;;16.80;11.77;;;;;;;;;;6277249;22;20140;-51
2023/12/08 06:20:43;;;;;;;20.63;13.00;;;;;;;;;;6303052;22;20161;-53
2023/12/08 06:23:09;;;;;;;20.50;12.27;;;;;;;;;;6276044;22;20178;-53
2023/12/08 06:25:35;;;;;;;20.60;12.53;;;;;;;;;;6277263;22;20148;-53
2023/12/08 06:28:01;;;;;;;17.03;11.50;;;;;;;;;;6277401;22;20163;-50
2023/12/08 06:30:27;;;;;;;20.60;13.63;;;;;;;;;;6278117;22;20143;-50
2023/12/08 06:32:53;;;;;;;19.80;12.63;;;;;;;;;;6278757;22;20131;-50
2023/12/08 06:35:20;;;;;;;20.27;13.30;;;;;;;;;;6306408;22;20177;-52
2023/12/08 06:37:47;;;;;;;18.53;12.93;;;;;;;;;;6273561;22;20192;-52
2023/12/08 06:40:13;;;;;;;22.73;14.53;;;;;;;;;;6274079;22;20160;-52
2023/12/08 06:42:40;;;;;;;20.20;14.07;;;;;;;;;;6273142;22;20513;-55
2023/12/08 06:45:07;;;;;;;21.80;13.70;;;;;;;;;;6272522;22;20167;-51
2023/12/08 06:47:33;;;;;;;20.30;13.87;;;;;;;;;;6272560;22;20186;-50
2023/12/08 06:49:59;;;;;;;22.17;14.73;;;;;;;;;;6272715;22;20156;-52
2023/12/08 06:52:26;;;;;;;20.97;14.67;;;;;;;;;;6271815;22;20174;-52
2023/12/08 06:54:52;;;;;;;22.90;14.83;;;;;;;;;;6272207;22;20148;-51
2023/12/08 06:57:19;;;;;;;22.13;14.37;;;;;;;;;;6272787;22;20140;-52
2023/12/08 06:59:45;;;;;;;24.40;15.53;;;;;;;;;;6272513;22;20141;-50
2023/12/08 07:02:11;;;;;;;24.03;14.47;;;;;;;;;;6273339;22;20140;-52
2023/12/08 07:04:37;;;;;;;23.33;14.83;;;;;;;;;;6274313;22;20731;-53
2023/12/08 07:07:03;;;;;;;24.17;16.03;;;;;;;;;;6272628;22;20214;-51
2023/12/08 07:09:30;;;;;;;24.87;16.00;;;;;;;;;;6267430;22;20190;-52
2023/12/08 07:11:56;;;;;;;23.43;15.77;;;;;;;;;;6267649;22;20329;-49
2023/12/08 07:14:22;;;;;;;24.50;16.13;;;;;;;;;;6267629;22;20140;-56
2023/12/08 07:16:48;;;;;;;24.57;15.70;;;;;;;;;;6272805;22;20461;-50
2023/12/08 07:19:14;;;;;;;21.93;15.13;;;;;;;;;;6273622;22;20253;-51
2023/12/08 07:21:43;;;;;;;20.53;13.87;;;;;;;;;;6273066;22;20154;-49
2023/12/08 07:24:10;;;;;;;22.40;15.70;;;;;;;;;;6273177;22;20163;-53
2023/12/08 07:26:37;;;;;;;23.03;15.27;;;;;;;;;;6273099;22;20172;-51
2023/12/08 07:29:03;;;;;;;22.87;15.77;;;;;;;;;;6273602;22;20215;-50
2023/12/08 07:31:36;;;;;;;24.67;16.73;;;;;;;;;;6273304;22;20121;-50
2023/12/08 07:34:22;;;;;;;23.87;15.07;;;;;;;;;;6273740;22;20163;-54
2023/12/08 07:36:50;;;;;;;25.30;15.80;;;;;;;;;;6276876;22;20630;-50
2023/12/08 07:39:25;;;;;;;24.03;15.97;;;;;;;;;;6278937;22;20166;-50
2023/12/08 07:41:51;;;;;;;21.17;14.43;;;;;;;;;;6304725;22;20131;-53
2023/12/08 07:44:17;;;;;;;23.27;15.27;;;;;;;;;;6278372;22;20206;-53
2023/12/08 07:46:46;;;;;;;22.63;15.13;;;;;;;;;;6279604;22;20175;-54
2023/12/08 07:49:12;;;;;;;21.37;14.80;;;;;;;;;;6295318;22;20164;-50
2023/12/08 07:51:38;;;;;;;22.97;15.10;;;;;;;;;;6277331;22;20195;-53
2023/12/08 07:54:04;;;;;;;19.90;14.03;;;;;;;;;;6278979;22;20155;-49
2023/12/08 07:56:30;;;;;;;23.10;15.60;;;;;;;;;;6279551;22;20246;-49
2023/12/08 07:58:56;;;;;;;24.83;15.93;;;;;;;;;;6306071;22;20185;-50
2023/12/08 08:01:22;;;;;;;22.87;15.80;;;;;;;;;;6278072;22;20485;-54
2023/12/08 08:03:48;;;;;;;23.53;15.40;;;;;;;;;;6304215;22;20226;-53
2023/12/08 08:06:14;;;;;;;23.30;15.57;;;;;;;;;;6277491;22;20168;-53
2023/12/08 08:08:40;;;;;;;22.87;15.53;;;;;;;;;;6277269;22;20139;-55
2023/12/08 08:11:07;;;;;;;22.67;14.80;;;;;;;;;;6303737;22;20144;-51
2023/12/08 08:13:33;;;;;;;22.83;14.47;;;;;;;;;;6276046;22;20139;-50
2023/12/08 08:15:59;;;;;;;23.47;15.30;;;;;;;;;;6275157;22;20198;-51
2023/12/08 08:18:28;;;;;;;24.27;15.27;;;;;;;;;;6275495;22;20131;-52
2023/12/08 08:20:55;;;;;;;22.17;14.53;;;;;;;;;;6276726;22;20136;-53
2023/12/08 08:23:22;;;;;;;21.17;14.20;;;;;;;;;;6276644;22;20415;-50
2023/12/08 08:25:48;;;;;;;25.23;15.57;;;;;;;;;;6276048;22;20171;-54
2023/12/08 08:28:15;;;;;;;21.33;13.80;;;;;;;;;;6304506;22;20604;-52
2023/12/08 08:30:47;;;;;;;26.83;16.27;;;;;;;;;;6278009;22;20132;-54
2023/12/08 08:33:13;;;;;;;21.63;14.23;;;;;;;;;;6278649;22;20170;-51
2023/12/08 08:35:40;;;;;;;22.13;15.30;;;;;;;;;;6305420;22;20447;-54
2023/12/08 08:38:06;;;;;;;22.50;15.57;;;;;;;;;;6278519;22;20248;-56
2023/12/08 08:40:33;;;;;;;21.47;14.53;;;;;;;;;;6277601;22;20155;-56
2023/12/08 08:42:59;;;;;;;22.87;15.57;;;;;;;;;;6277690;22;20175;-55
2023/12/08 08:45:25;;;;;;;23.80;15.93;;;;;;;;;;6277639;22;20174;-56
2023/12/08 08:47:51;;;;;;;28.03;16.37;;;;;;;;;;6277888;22;20167;-55
2023/12/08 08:50:18;;;;;;;24.30;16.17;;;;;;;;;;6277935;22;20521;-50
2023/12/08 08:52:44;;;;;;;23.37;15.73;;;;;;;;;;6275762;22;20150;-50
2023/12/08 08:55:10;;;;;;;21.77;15.03;;;;;;;;;;6277195;22;20708;-52
2023/12/08 08:57:36;;;;;;;24.23;16.97;;;;;;;;;;6305095;22;20140;-53
2023/12/08 09:00:04;;;;;;;22.07;15.73;;;;;;;;;;6277735;22;20264;-51
2023/12/08 09:02:30;;;;;;;21.00;14.90;;;;;;;;;;6277277;22;20692;-50
2023/12/08 09:04:56;;;;;;;24.53;16.23;;;;;;;;;;6276545;22;20165;-50
2023/12/08 09:07:22;;;;;;;26.57;16.90;;;;;;;;;;6276751;22;20163;-51
2023/12/08 09:09:48;;;;;;;22.20;15.50;;;;;;;;;;6278624;22;20158;-50
2023/12/08 09:12:14;;;;;;;25.53;16.47;;;;;;;;;;6278039;22;20151;-53
2023/12/08 09:14:40;;;;;;;23.67;15.77;;;;;;;;;;6277662;22;20710;-53
2023/12/08 09:17:06;;;;;;;26.83;17.40;;;;;;;;;;6278821;22;20198;-52
2023/12/08 09:19:33;;;;;;;24.17;16.10;;;;;;;;;;6279307;22;20525;-53
2023/12/08 09:22:00;;;;;;;25.37;15.23;;;;;;;;;;6279918;22;20575;-52
2023/12/08 09:24:27;;;;;;;22.83;16.07;;;;;;;;;;6279947;22;20217;-52
2023/12/08 09:26:54;;;;;;;24.17;15.33;;;;;;;;;;6279205;22;20269;-54
2023/12/08 09:29:23;;;;;;;24.53;16.27;;;;;;;;;;6279357;22;20218;-55
2023/12/08 09:31:49;;;;;;;25.23;16.00;;;;;;;;;;6277566;22;20135;-50
2023/12/08 09:34:16;;;;;;;23.57;16.17;;;;;;;;;;6276510;22;20406;-52
2023/12/08 09:36:49;;;;;;;25.10;16.53;;;;;;;;;;6278015;22;20139;-53
2023/12/08 09:39:15;;;;;;;25.23;16.50;;;;;;;;;;6276431;22;20185;-49
2023/12/08 09:41:41;;;;;;;23.13;15.50;;;;;;;;;;6276741;22;20152;-53
2023/12/08 09:44:08;;;;;;;23.93;16.43;;;;;;;;;;6277818;22;20151;-55
2023/12/08 09:46:35;;;;;;;24.80;15.83;;;;;;;;;;6305034;22;20159;-55
2023/12/08 09:49:01;;;;;;;26.03;16.23;;;;;;;;;;6304125;22;20384;-54
2023/12/08 09:51:28;;;;;;;24.17;16.07;;;;;;;;;;6305532;22;20124;-52
2023/12/08 09:53:56;;;;;;;24.37;16.53;;;;;;;;;;6279197;22;20147;-55
2023/12/08 09:56:23;;;;;;;26.90;16.47;;;;;;;;;;6304480;22;20493;-52
2023/12/08 09:58:49;;;;;;;23.03;15.77;;;;;;;;;;6278699;22;20751;-50
2023/12/08 10:01:17;;;;;;;25.17;16.07;;;;;;;;;;6278917;22;20151;-53
2023/12/08 10:03:44;;;;;;;22.23;15.30;;;;;;;;;;6278463;22;20197;-52
2023/12/08 10:06:11;;;;;;;23.37;15.43;;;;;;;;;;6277747;22;20370;-53
2023/12/08 10:08:37;;;;;;;23.77;15.43;;;;;;;;;;6277913;22;20136;-52
2023/12/08 10:11:05;;;;;;;22.90;15.17;;;;;;;;;;6277468;22;20195;-51
2023/12/08 10:13:33;;;;;;;24.33;15.47;;;;;;;;;;6275723;22;20245;-53
2023/12/08 10:16:02;;;;;;;20.80;14.27;;;;;;;;;;6275525;22;20136;-52
2023/12/08 10:18:28;;;;;;;19.57;14.53;;;;;;;;;;6303880;22;20202;-53
2023/12/08 10:21:13;;;;;;;21.77;15.80;;;;;;;;;;6276831;22;20234;-52
2023/12/08 10:23:41;;;;;;;22.00;15.30;;;;;;;;;;6303729;22;20411;-54
2023/12/08 10:26:06;;;;;;;23.80;15.53;;;;;;;;;;6304604;22;20171;-54
2023/12/08 10:28:36;;;;;;;22.73;15.60;;;;;;;;;;6302457;22;20206;-52
2023/12/08 10:31:03;;;;;;;22.93;15.57;;;;;;;;;;6301684;22;20181;-51
2023/12/08 10:33:30;;;;;;;22.70;14.80;;;;;;;;;;6274987;22;20218;-50
2023/12/08 10:35:58;;;;;;;23.57;14.57;;;;;;;;;;6301163;22;20166;-51
2023/12/08 10:38:24;;;;;;;21.17;15.07;;;;;;;;;;6270253;22;20203;-48
2023/12/08 10:40:51;;;;;;;21.47;14.57;;;;;;;;;;6270006;22;20160;-53
2023/12/08 10:43:23;;;;;;;23.33;14.93;;;;;;;;;;6269570;22;20140;-53
2023/12/08 10:45:52;;;;;;;19.90;13.93;;;;;;;;;;6270462;22;20443;-49
2023/12/08 10:48:20;;;;;;;22.53;14.23;;;;;;;;;;6270560;22;20147;-54
2023/12/08 10:50:47;;;;;;;21.57;14.57;;;;;;;;;;6270853;22;20154;-53
2023/12/08 10:53:19;;;;;;;21.33;14.47;;;;;;;;;;6270660;22;20164;-58
2023/12/08 10:55:52;;;;;;;23.77;14.93;;;;;;;;;;6270745;22;20606;-58
2023/12/08 10:58:21;;;;;;;20.97;13.87;;;;;;;;;;6269856;22;20450;-59
2023/12/08 11:00:53;;;;;;;20.77;14.30;;;;;;;;;;6272012;22;20156;-51
2023/12/08 11:03:21;;;;;;;22.53;14.13;;;;;;;;;;6247718;22;20239;-51
2023/12/08 11:05:53;;;;;;;24.07;15.93;;;;;;;;;;6270297;22;20151;-51
2023/12/08 11:08:19;;;;;;;21.30;14.90;;;;;;;;;;6269179;22;20740;-52
2023/12/08 11:10:50;;;;;;;19.70;13.50;;;;;;;;;;6268296;22;20136;-52
2023/12/08 11:13:22;;;;;;;22.87;14.27;;;;;;;;;;6265632;22;20137;-52
2023/12/08 11:16:10;;;;;;;23.30;14.10;;;;;;;;;;6265713;22;20151;-52
2023/12/08 11:18:40;;;;;;;20.63;13.77;;;;;;;;;;6266401;22;20255;-55
2023/12/08 11:21:08;;;;;;;20.80;15.03;;;;;;;;;;6264758;22;20141;-54
2023/12/08 11:23:39;;;;;;;19.30;13.73;;;;;;;;;;6265088;22;20538;-54
2023/12/08 11:26:14;;;;;;;23.87;13.17;;;;;;;;;;6267483;22;20164;-51
2023/12/08 11:28:50;;;;;;;20.60;14.13;;;;;;;;;;6270404;22;20143;-54
2023/12/08 11:31:36;;;;;;;22.30;14.77;;;;;;;;;;6247607;22;20175;-53
2023/12/08 11:34:11;;;;;;;27.60;15.03;;;;;;;;;;6271657;22;20232;-53
2023/12/08 11:36:47;;;;;;;21.67;14.47;;;;;;;;;;6271318;22;20482;-56
2023/12/08 11:39:32;;;;;;;19.83;13.73;;;;;;;;;;6278417;22;20497;-53
2023/12/08 11:41:59;;;;;;;18.83;12.80;;;;;;;;;;6304589;22;20152;-54
2023/12/08 11:44:26;;;;;;;19.00;13.73;;;;;;;;;;6278669;22;20234;-50
2023/12/08 11:46:55;;;;;;;22.00;14.43;;;;;;;;;;6279357;22;20205;-51
2023/12/08 11:49:21;;;;;;;21.63;14.10;;;;;;;;;;6253436;22;20140;-52
2023/12/08 11:52:06;;;;;;;20.90;14.13;;;;;;;;;;6277183;22;20398;-52
2023/12/08 11:54:52;;;;;;;20.53;13.87;;;;;;;;;;6303658;22;20124;-53
2023/12/08 11:57:20;;;;;;;18.40;12.60;;;;;;;;;;6277484;22;20147;-56
2023/12/08 11:59:46;;;;;;;24.37;13.63;;;;;;;;;;6278577;22;20135;-51
2023/12/08 12:02:12;;;;;;;18.37;13.73;;;;;;;;;;6278854;22;20139;-54
2023/12/08 12:04:40;;;;;;;22.80;15.30;;;;;;;;;;6277555;22;20140;-55
2023/12/08 12:07:08;;;;;;;20.77;14.60;;;;;;;;;;6276552;22;20168;-51
2023/12/08 12:09:36;;;;;;;22.70;15.13;;;;;;;;;;6274483;22;20212;-52
2023/12/08 12:12:11;;;;;;;24.40;14.23;;;;;;;;;;6276698;22;20162;-56
2023/12/08 12:14:43;;;;;;;23.87;14.80;;;;;;;;;;6301715;22;20120;-52
2023/12/08 12:17:13;;;;;;;22.43;15.00;;;;;;;;;;6301875;22;20720;-51
2023/12/08 12:19:40;;;;;;;24.17;14.17;;;;;;;;;;6274524;22;20213;-54
2023/12/08 12:22:07;;;;;;;23.63;15.87;;;;;;;;;;6300684;22;20206;-50
2023/12/08 12:24:34;;;;;;;25.23;15.23;;;;;;;;;;6275376;22;20143;-55
2023/12/08 12:27:02;;;;;;;23.30;14.60;;;;;;;;;;6275212;22;20261;-53
2023/12/08 12:29:28;;;;;;;38.27;17.87;;;;;;;;;;6276541;22;20154;-53
2023/12/08 12:31:54;;;;;;;24.13;15.20;;;;;;;;;;6277638;22;20310;-53
2023/12/08 12:34:20;;;;;;;27.70;15.13;;;;;;;;;;6278528;22;20176;-56
2023/12/08 12:36:47;;;;;;;22.17;14.27;;;;;;;;;;6278164;22;20147;-54
2023/12/08 12:39:14;;;;;;;25.97;16.03;;;;;;;;;;6303471;22;20147;-57
2023/12/08 12:41:40;;;;;;;24.37;16.07;;;;;;;;;;6277929;22;20151;-58
2023/12/08 12:44:06;;;;;;;25.80;15.57;;;;;;;;;;6301533;22;20498;-59
2023/12/08 12:46:32;;;;;;;23.73;15.90;;;;;;;;;;6275331;22;20266;-59
2023/12/08 12:48:59;;;;;;;21.53;15.20;;;;;;;;;;6275845;22;20208;-54
2023/12/08 12:51:32;;;;;;;24.50;14.37;;;;;;;;;;6271850;22;20234;-50
2023/12/08 12:54:00;;;;;;;22.87;14.67;;;;;;;;;;6271479;22;20136;-53
2023/12/08 12:56:28;;;;;;;25.90;15.03;;;;;;;;;;6270863;22;20705;-49
2023/12/08 12:59:07;;;;;;;25.30;16.20;;;;;;;;;;6271892;22;20151;-50
2023/12/08 13:01:33;;;;;;;21.03;14.37;;;;;;;;;;6272071;22;20494;-52
2023/12/08 13:04:01;;;;;;;19.00;13.63;;;;;;;;;;6271770;22;20204;-53
2023/12/08 13:06:32;;;;;;;23.17;15.10;;;;;;;;;;6273673;22;20183;-54
2023/12/08 13:09:03;;;;;;;20.23;13.93;;;;;;;;;;6298797;22;20127;-55
2023/12/08 13:11:29;;;;;;;21.83;15.63;;;;;;;;;;6273947;22;20139;-52
2023/12/08 13:13:56;;;;;;;22.53;15.63;;;;;;;;;;6275483;22;20713;-53
2023/12/08 13:16:24;;;;;;;22.23;14.50;;;;;;;;;;6275192;22;20241;-53
2023/12/08 13:18:50;;;;;;;22.73;13.83;;;;;;;;;;6274249;22;20293;-52
2023/12/08 13:21:17;;;;;;;18.67;13.67;;;;;;;;;;6275978;22;20144;-55
2023/12/08 13:23:44;;;;;;;22.33;14.13;;;;;;;;;;6301003;22;20134;-54
2023/12/08 13:26:13;;;;;;;23.00;15.00;;;;;;;;;;6273878;22;20139;-52
2023/12/08 13:28:39;;;;;;;19.43;14.17;;;;;;;;;;6273764;22;20147;-53
2023/12/08 13:31:06;;;;;;;25.77;14.97;;;;;;;;;;6272947;22;20691;-51
2023/12/08 13:33:32;;;;;;;23.33;15.90;;;;;;;;;;6271913;22;20159;-51
2023/12/08 13:35:58;;;;;;;18.80;12.73;;;;;;;;;;6271629;22;20158;-54
2023/12/08 13:38:24;;;;;;;21.63;14.53;;;;;;;;;;6266377;22;20582;-52
2023/12/08 13:40:51;;;;;;;20.73;13.30;;;;;;;;;;6267308;22;20149;-53
2023/12/08 13:43:17;;;;;;;20.53;14.27;;;;;;;;;;6269239;22;20145;-50
2023/12/08 13:45:43;;;;;;;19.17;14.20;;;;;;;;;;6269793;22;20140;-53
2023/12/08 13:48:09;;;;;;;20.17;13.97;;;;;;;;;;6270955;22;20171;-51
2023/12/08 13:50:38;;;;;;;21.20;14.03;;;;;;;;;;6271331;22;20136;-53
2023/12/08 13:53:05;;;;;;;21.20;15.27;;;;;;;;;;6271586;22;20827;-51
2023/12/08 13:55:31;;;;;;;26.07;15.50;;;;;;;;;;6269102;22;20179;-52
2023/12/08 13:57:57;;;;;;;19.53;14.27;;;;;;;;;;6270757;22;20538;-52
2023/12/08 14:00:26;;;;;;;21.53;14.50;;;;;;;;;;6272134;22;20133;-53
2023/12/08 14:02:52;;;;;;;25.00;15.50;;;;;;;;;;6272015;22;20136;-53
2023/12/08 14:05:20;;;;;;;21.37;14.50;;;;;;;;;;6273628;22;20224;-51
2023/12/08 14:07:47;;;;;;;22.13;14.83;;;;;;;;;;6272886;22;20162;-49
2023/12/08 14:10:13;;;;;;;19.53;13.90;;;;;;;;;;6273235;22;20159;-54
2023/12/08 14:12:42;;;;;;;21.27;14.60;;;;;;;;;;6273603;22;20144;-51
2023/12/08 14:15:10;;;;;;;20.20;13.70;;;;;;;;;;6274119;22;20633;-53
2023/12/08 14:17:36;;;;;;;21.43;15.27;;;;;;;;;;6271825;22;20223;-52